createdAt,value
2022-12-17T00:00:46.833Z,96184
2022-12-17T00:01:46.749Z,96184
2022-12-17T00:02:46.931Z,96191
2022-12-17T00:03:46.995Z,96191
2022-12-17T00:04:46.807Z,96194
2022-12-17T00:05:47.131Z,96196
2022-12-17T00:07:46.823Z,96190
2022-12-17T00:08:46.799Z,96192
2022-12-17T00:09:50.281Z,96195
2022-12-17T00:10:46.800Z,96193
2022-12-17T00:11:46.800Z,96193
2022-12-17T00:12:46.768Z,96196
2022-12-17T00:15:46.893Z,96198
2022-12-17T00:16:46.807Z,96202
2022-12-17T00:17:46.832Z,96201
2022-12-17T00:18:46.858Z,96203
2022-12-17T00:19:46.814Z,96201
2022-12-17T00:20:46.832Z,96202
2022-12-17T00:23:46.861Z,96211
2022-12-17T00:24:46.839Z,96215
2022-12-17T00:25:46.848Z,96215
2022-12-17T00:26:46.871Z,96216
2022-12-17T00:28:46.876Z,96221
2022-12-17T00:30:46.821Z,96224
2022-12-17T00:31:46.984Z,96224
2022-12-17T00:32:46.842Z,96226
2022-12-17T00:34:46.869Z,96232
2022-12-17T00:35:46.862Z,96233
2022-12-17T00:36:46.924Z,96235
2022-12-17T00:37:46.828Z,96233
2022-12-17T00:38:46.926Z,96234
2022-12-17T00:39:46.854Z,96234
2022-12-17T00:40:46.882Z,96231
2022-12-17T00:41:46.927Z,96233
2022-12-17T00:42:47.357Z,96236
2022-12-17T00:43:46.909Z,96238
2022-12-17T00:44:46.835Z,96238
2022-12-17T00:45:46.865Z,96239
2022-12-17T00:46:46.974Z,96239
2022-12-17T00:47:46.902Z,96239
2022-12-17T00:48:46.932Z,96242
2022-12-17T00:49:46.886Z,96241
2022-12-17T00:50:46.871Z,96244
2022-12-17T00:51:46.939Z,96240
2022-12-17T00:52:46.871Z,96240
2022-12-17T00:53:46.937Z,96247
2022-12-17T00:54:46.915Z,96244
2022-12-17T00:55:46.913Z,96244
2022-12-17T00:56:46.903Z,96251
2022-12-17T00:57:46.896Z,96251
2022-12-17T00:58:46.945Z,96251
2022-12-17T00:59:46.930Z,96251
2022-12-17T01:00:46.954Z,96251
2022-12-17T01:01:47.137Z,96252
2022-12-17T01:02:47.089Z,96252
2022-12-17T01:05:46.937Z,96256
2022-12-17T01:07:46.932Z,96257
2022-12-17T01:08:46.932Z,96259
2022-12-17T01:09:46.901Z,96262
2022-12-17T01:11:46.955Z,96261
2022-12-17T01:12:46.931Z,96266
2022-12-17T01:13:46.954Z,96268
2022-12-17T01:14:46.924Z,96268
2022-12-17T01:15:46.935Z,96269
2022-12-17T01:16:47.054Z,96273
2022-12-17T01:17:46.941Z,96273
2022-12-17T01:18:47.011Z,96271
2022-12-17T01:20:46.977Z,96273
2022-12-17T01:22:46.976Z,96278
2022-12-17T01:23:46.979Z,96278
2022-12-17T01:24:46.976Z,96287
2022-12-17T01:25:46.947Z,96287
2022-12-17T01:26:47.029Z,96285
2022-12-17T01:27:46.996Z,96285
2022-12-17T01:28:47.006Z,96285
2022-12-17T01:29:46.988Z,96285
2022-12-17T01:30:47.019Z,96287
2022-12-17T01:33:47.045Z,96284
2022-12-17T01:34:46.975Z,96284
2022-12-17T01:35:46.973Z,96283
2022-12-17T01:36:46.995Z,96287
2022-12-17T01:37:46.966Z,96287
2022-12-17T01:38:47.050Z,96288
2022-12-17T01:39:47.005Z,96288
2022-12-17T01:42:47.020Z,96288
2022-12-17T01:43:46.972Z,96289
2022-12-17T01:44:47.034Z,96293
2022-12-17T01:45:47.072Z,96290
2022-12-17T01:47:46.994Z,96291
2022-12-17T01:48:47.046Z,96290
2022-12-17T01:50:47.066Z,96290
2022-12-17T01:51:47.085Z,96293
2022-12-17T01:53:47.015Z,96292
2022-12-17T01:54:47.039Z,96292
2022-12-17T01:55:47.032Z,96293
2022-12-17T01:56:47.945Z,96297
2022-12-17T01:57:47.052Z,96297
2022-12-17T01:58:47.059Z,96295
2022-12-17T01:59:47.096Z,96298
2022-12-17T02:00:47.080Z,96302
2022-12-17T02:01:47.215Z,96302
2022-12-17T02:02:47.200Z,96304
2022-12-17T02:03:47.024Z,96303
2022-12-17T02:04:47.102Z,96308
2022-12-17T02:06:47.063Z,96308
2022-12-17T02:07:47.155Z,96310
2022-12-17T02:08:47.085Z,96310
2022-12-17T02:09:47.117Z,96316
2022-12-17T02:10:47.052Z,96312
2022-12-17T02:11:47.071Z,96313
2022-12-17T02:13:47.107Z,96311
2022-12-17T02:14:47.083Z,96311
2022-12-17T02:17:47.155Z,96314
2022-12-17T02:18:47.125Z,96314
2022-12-17T02:19:47.106Z,96312
2022-12-17T02:20:47.124Z,96312
2022-12-17T02:21:47.073Z,96315
2022-12-17T02:22:47.148Z,96314
2022-12-17T02:23:47.134Z,96314
2022-12-17T02:24:47.125Z,96316
2022-12-17T02:26:47.096Z,96316
2022-12-17T02:28:47.129Z,96319
2022-12-17T02:29:47.137Z,96319
2022-12-17T02:30:47.139Z,96319
2022-12-17T02:32:47.152Z,96316
2022-12-17T02:33:47.995Z,96314
2022-12-17T02:35:47.151Z,96314
2022-12-17T02:36:47.136Z,96316
2022-12-17T02:38:47.113Z,96323
2022-12-17T02:39:47.169Z,96319
2022-12-17T02:40:47.198Z,96323
2022-12-17T02:42:47.180Z,96321
2022-12-17T02:43:47.163Z,96321
2022-12-17T02:44:47.190Z,96320
2022-12-17T02:45:47.274Z,96327
2022-12-17T02:47:47.197Z,96331
2022-12-17T02:48:47.174Z,96331
2022-12-17T02:49:47.137Z,96331
2022-12-17T02:50:47.230Z,96329
2022-12-17T02:51:47.188Z,96329
2022-12-17T02:52:47.173Z,96328
2022-12-17T02:53:47.234Z,96330
2022-12-17T02:54:47.202Z,96330
2022-12-17T02:55:47.244Z,96330
2022-12-17T02:56:47.166Z,96332
2022-12-17T02:57:50.859Z,96332
2022-12-17T02:58:47.206Z,96331
2022-12-17T02:59:47.215Z,96325
2022-12-17T03:00:47.302Z,96329
2022-12-17T03:01:47.339Z,96329
2022-12-17T03:02:47.358Z,96328
2022-12-17T03:04:47.212Z,96331
2022-12-17T03:06:47.237Z,96332
2022-12-17T03:07:47.212Z,96333
2022-12-17T03:08:47.256Z,96337
2022-12-17T03:09:47.206Z,96338
2022-12-17T03:10:48.222Z,96341
2022-12-17T03:11:47.187Z,96341
2022-12-17T03:12:47.281Z,96339
2022-12-17T03:16:47.253Z,96344
2022-12-17T03:17:47.252Z,96342
2022-12-17T03:18:47.311Z,96344
2022-12-17T03:19:47.244Z,96341
2022-12-17T03:21:47.218Z,96341
2022-12-17T03:23:47.265Z,96343
2022-12-17T03:24:47.279Z,96343
2022-12-17T03:25:47.236Z,96342
2022-12-17T03:26:47.289Z,96342
2022-12-17T03:27:47.246Z,96344
2022-12-17T03:28:47.279Z,96344
2022-12-17T03:29:47.288Z,96347
2022-12-17T03:30:49.065Z,96345
2022-12-17T03:32:47.264Z,96346
2022-12-17T03:33:47.314Z,96346
2022-12-17T03:37:47.310Z,96355
2022-12-17T03:40:47.314Z,96350
2022-12-17T03:41:47.297Z,96349
2022-12-17T03:42:47.304Z,96349
2022-12-17T03:43:47.303Z,96349
2022-12-17T03:44:47.345Z,96353
2022-12-17T03:46:47.354Z,96354
2022-12-17T03:47:48.434Z,96357
2022-12-17T03:48:47.331Z,96357
2022-12-17T03:49:47.384Z,96358
2022-12-17T03:50:47.330Z,96358
2022-12-17T03:51:47.328Z,96360
2022-12-17T03:53:47.331Z,96360
2022-12-17T03:54:47.376Z,96362
2022-12-17T03:55:47.310Z,96361
2022-12-17T03:56:47.387Z,96362
2022-12-17T03:57:47.332Z,96362
2022-12-17T03:58:47.311Z,96363
2022-12-17T04:01:47.529Z,96365
2022-12-17T04:02:47.671Z,96365
2022-12-17T04:03:47.355Z,96365
2022-12-17T04:04:47.398Z,96368
2022-12-17T04:06:47.376Z,96367
2022-12-17T04:08:47.383Z,96371
2022-12-17T04:09:47.379Z,96374
2022-12-17T04:10:47.372Z,96373
2022-12-17T04:11:47.383Z,96373
2022-12-17T04:13:48.170Z,96373
2022-12-17T04:14:47.404Z,96369
2022-12-17T04:15:47.506Z,96375
2022-12-17T04:16:47.348Z,96376
2022-12-17T04:17:47.417Z,96378
2022-12-17T04:18:47.390Z,96378
2022-12-17T04:19:47.405Z,96375
2022-12-17T04:20:47.410Z,96375
2022-12-17T04:21:47.408Z,96377
2022-12-17T04:22:47.424Z,96376
2022-12-17T04:23:47.391Z,96379
2022-12-17T04:24:48.705Z,96379
2022-12-17T04:25:47.393Z,96379
2022-12-17T04:26:47.395Z,96379
2022-12-17T04:27:47.450Z,96381
2022-12-17T04:28:47.400Z,96382
2022-12-17T04:29:47.426Z,96381
2022-12-17T04:30:47.440Z,96386
2022-12-17T04:32:47.470Z,96382
2022-12-17T04:33:47.395Z,96382
2022-12-17T04:34:47.399Z,96383
2022-12-17T04:35:47.448Z,96383
2022-12-17T04:36:47.426Z,96383
2022-12-17T04:37:47.465Z,96383
2022-12-17T04:38:47.462Z,96379
2022-12-17T04:39:47.449Z,96379
2022-12-17T04:40:47.465Z,96382
2022-12-17T04:41:47.454Z,96382
2022-12-17T04:42:47.491Z,96385
2022-12-17T04:43:47.442Z,96385
2022-12-17T04:44:47.447Z,96384
2022-12-17T04:45:47.495Z,96386
2022-12-17T04:46:47.504Z,96386
2022-12-17T04:48:47.463Z,96389
2022-12-17T04:49:47.423Z,96392
2022-12-17T04:50:47.466Z,96392
2022-12-17T04:51:47.479Z,96392
2022-12-17T04:52:47.464Z,96392
2022-12-17T04:53:47.491Z,96390
2022-12-17T04:54:47.473Z,96392
2022-12-17T04:55:47.542Z,96397
2022-12-17T04:56:47.436Z,96397
2022-12-17T04:57:47.488Z,96399
2022-12-17T04:58:47.472Z,96397
2022-12-17T04:59:47.500Z,96403
2022-12-17T05:00:47.517Z,96403
2022-12-17T05:01:48.983Z,96411
2022-12-17T05:02:47.640Z,96411
2022-12-17T05:03:47.574Z,96409
2022-12-17T05:04:47.515Z,96410
2022-12-17T05:06:47.502Z,96413
2022-12-17T05:09:47.524Z,96415
2022-12-17T05:10:47.502Z,96413
2022-12-17T05:11:47.522Z,96419
2022-12-17T05:12:47.538Z,96417
2022-12-17T05:13:47.553Z,96417
2022-12-17T05:15:52.985Z,96421
2022-12-17T05:17:47.514Z,96420
2022-12-17T05:18:47.524Z,96422
2022-12-17T05:19:47.536Z,96422
2022-12-17T05:20:47.540Z,96421
2022-12-17T05:22:47.548Z,96423
2022-12-17T05:24:47.508Z,96422
2022-12-17T05:25:47.567Z,96422
2022-12-17T05:26:47.578Z,96423
2022-12-17T05:27:47.510Z,96423
2022-12-17T05:28:47.578Z,96429
2022-12-17T05:29:47.519Z,96429
2022-12-17T05:30:47.620Z,96428
2022-12-17T05:31:47.553Z,96428
2022-12-17T05:32:47.561Z,96431
2022-12-17T05:33:47.568Z,96433
2022-12-17T05:36:47.583Z,96437
2022-12-17T05:37:47.530Z,96438
2022-12-17T05:38:49.118Z,96442
2022-12-17T05:39:47.577Z,96442
2022-12-17T05:40:47.597Z,96443
2022-12-17T05:41:47.630Z,96443
2022-12-17T05:42:47.608Z,96437
2022-12-17T05:43:47.595Z,96442
2022-12-17T05:44:47.627Z,96442
2022-12-17T05:45:47.603Z,96442
2022-12-17T05:46:47.657Z,96440
2022-12-17T05:47:47.573Z,96440
2022-12-17T05:49:47.650Z,96440
2022-12-17T05:50:47.566Z,96442
2022-12-17T05:51:47.600Z,96442
2022-12-17T05:52:47.617Z,96438
2022-12-17T05:53:47.587Z,96439
2022-12-17T05:54:47.645Z,96438
2022-12-17T05:55:47.599Z,96442
2022-12-17T05:56:47.614Z,96442
2022-12-17T05:57:50.560Z,96444
2022-12-17T05:58:47.582Z,96448
2022-12-17T05:59:47.656Z,96446
2022-12-17T06:00:47.582Z,96451
2022-12-17T06:01:47.710Z,96457
2022-12-17T06:02:47.739Z,96458
2022-12-17T06:03:47.732Z,96458
2022-12-17T06:04:47.653Z,96457
2022-12-17T06:05:47.644Z,96460
2022-12-17T06:06:47.659Z,96460
2022-12-17T06:07:47.664Z,96460
2022-12-17T06:08:47.636Z,96464
2022-12-17T06:09:47.702Z,96464
2022-12-17T06:11:47.659Z,96468
2022-12-17T06:12:47.705Z,96468
2022-12-17T06:13:47.686Z,96468
2022-12-17T06:14:47.704Z,96471
2022-12-17T06:15:49.480Z,96468
2022-12-17T06:16:47.630Z,96468
2022-12-17T06:17:47.713Z,96471
2022-12-17T06:18:47.667Z,96470
2022-12-17T06:19:47.714Z,96471
2022-12-17T06:20:47.669Z,96471
2022-12-17T06:21:47.670Z,96469
2022-12-17T06:22:47.672Z,96470
2022-12-17T06:23:47.660Z,96471
2022-12-17T06:24:47.732Z,96471
2022-12-17T06:25:47.661Z,96469
2022-12-17T06:26:47.681Z,96469
2022-12-17T06:27:47.689Z,96472
2022-12-17T06:28:47.665Z,96470
2022-12-17T06:29:47.725Z,96471
2022-12-17T06:30:47.662Z,96471
2022-12-17T06:31:47.766Z,96466
2022-12-17T06:32:47.740Z,96466
2022-12-17T06:33:47.717Z,96466
2022-12-17T06:34:47.750Z,96472
2022-12-17T06:35:47.692Z,96476
2022-12-17T06:36:47.663Z,96476
2022-12-17T06:37:47.701Z,96474
2022-12-17T06:38:47.673Z,96474
2022-12-17T06:40:47.754Z,96474
2022-12-17T06:41:47.732Z,96474
2022-12-17T06:42:47.735Z,96478
2022-12-17T06:43:47.699Z,96478
2022-12-17T06:44:47.774Z,96479
2022-12-17T06:45:47.744Z,96480
2022-12-17T06:46:47.841Z,96485
2022-12-17T06:47:47.774Z,96485
2022-12-17T06:48:47.754Z,96490
2022-12-17T06:49:47.732Z,96490
2022-12-17T06:50:47.751Z,96492
2022-12-17T06:51:47.760Z,96492
2022-12-17T06:52:49.643Z,96493
2022-12-17T06:53:47.732Z,96493
2022-12-17T06:54:47.774Z,96491
2022-12-17T06:55:47.814Z,96494
2022-12-17T06:56:47.744Z,96489
2022-12-17T06:57:50.497Z,96496
2022-12-17T06:58:47.741Z,96496
2022-12-17T06:59:47.763Z,96495
2022-12-17T07:00:47.867Z,96498
2022-12-17T07:01:47.866Z,96500
2022-12-17T07:02:47.962Z,96508
2022-12-17T07:03:47.787Z,96508
2022-12-17T07:04:47.789Z,96508
2022-12-17T07:05:47.797Z,96504
2022-12-17T07:06:47.798Z,96504
2022-12-17T07:07:47.754Z,96504
2022-12-17T07:08:47.832Z,96508
2022-12-17T07:09:47.827Z,96511
2022-12-17T07:10:47.839Z,96513
2022-12-17T07:11:47.933Z,96514
2022-12-17T07:12:47.805Z,96514
2022-12-17T07:13:47.831Z,96513
2022-12-17T07:14:47.770Z,96514
2022-12-17T07:15:47.887Z,96517
2022-12-17T07:16:47.869Z,96517
2022-12-17T07:17:47.770Z,96520
2022-12-17T07:18:47.831Z,96526
2022-12-17T07:19:47.821Z,96526
2022-12-17T07:20:47.850Z,96532
2022-12-17T07:21:47.821Z,96534
2022-12-17T07:22:47.832Z,96537
2022-12-17T07:23:47.833Z,96532
2022-12-17T07:24:47.804Z,96538
2022-12-17T07:25:47.799Z,96537
2022-12-17T07:26:47.793Z,96537
2022-12-17T07:27:47.824Z,96533
2022-12-17T07:28:47.869Z,96533
2022-12-17T07:29:49.899Z,96536
2022-12-17T07:30:52.653Z,96536
2022-12-17T07:31:48.010Z,96534
2022-12-17T07:32:47.796Z,96534
2022-12-17T07:33:47.931Z,96536
2022-12-17T07:34:47.842Z,96536
2022-12-17T07:35:47.856Z,96541
2022-12-17T07:36:47.851Z,96543
2022-12-17T07:37:47.870Z,96547
2022-12-17T07:38:47.814Z,96547
2022-12-17T07:39:47.905Z,96550
2022-12-17T07:40:47.832Z,96551
2022-12-17T07:41:47.874Z,96552
2022-12-17T07:42:47.896Z,96553
2022-12-17T07:43:52.796Z,96552
2022-12-17T07:44:47.887Z,96556
2022-12-17T07:45:47.938Z,96552
2022-12-17T07:46:47.922Z,96555
2022-12-17T07:47:47.843Z,96556
2022-12-17T07:48:47.883Z,96558
2022-12-17T07:50:47.871Z,96560
2022-12-17T07:51:47.885Z,96557
2022-12-17T07:52:47.908Z,96559
2022-12-17T07:53:47.929Z,96559
2022-12-17T07:54:47.894Z,96560
2022-12-17T07:55:47.919Z,96560
2022-12-17T07:56:47.919Z,96565
2022-12-17T07:57:47.912Z,96565
2022-12-17T07:58:47.936Z,96564
2022-12-17T07:59:47.933Z,96564
2022-12-17T08:01:48.121Z,96564
2022-12-17T08:03:47.975Z,96567
2022-12-17T08:04:47.999Z,96565
2022-12-17T08:05:47.960Z,96570
2022-12-17T08:06:50.161Z,96571
2022-12-17T08:07:47.911Z,96572
2022-12-17T08:08:47.924Z,96574
2022-12-17T08:09:48.016Z,96576
2022-12-17T08:11:47.974Z,96582
2022-12-17T08:12:47.929Z,96582
2022-12-17T08:14:47.958Z,96584
2022-12-17T08:15:47.933Z,96584
2022-12-17T08:16:48.047Z,96584
2022-12-17T08:17:47.937Z,96587
2022-12-17T08:19:47.947Z,96595
2022-12-17T08:20:48.009Z,96596
2022-12-17T08:22:47.969Z,96598
2022-12-17T08:23:47.946Z,96602
2022-12-17T08:24:48.020Z,96606
2022-12-17T08:25:47.963Z,96606
2022-12-17T08:26:48.445Z,96606
2022-12-17T08:27:48.017Z,96615
2022-12-17T08:28:50.881Z,96616
2022-12-17T08:29:47.991Z,96617
2022-12-17T08:30:48.017Z,96620
2022-12-17T08:31:47.966Z,96620
2022-12-17T08:32:47.988Z,96625
2022-12-17T08:33:47.968Z,96628
2022-12-17T08:35:48.007Z,96629
2022-12-17T08:36:47.994Z,96627
2022-12-17T08:37:47.962Z,96627
2022-12-17T08:38:47.966Z,96634
2022-12-17T08:39:48.038Z,96634
2022-12-17T08:40:47.987Z,96639
2022-12-17T08:41:53.999Z,96639
2022-12-17T08:43:50.475Z,96643
2022-12-17T08:44:48.042Z,96645
2022-12-17T08:45:48.079Z,96648
2022-12-17T08:46:48.060Z,96651
2022-12-17T08:47:48.030Z,96648
2022-12-17T08:48:47.981Z,96648
2022-12-17T08:49:47.988Z,96655
2022-12-17T08:50:48.076Z,96656
2022-12-17T08:51:48.057Z,96661
2022-12-17T08:52:48.059Z,96662
2022-12-17T08:53:48.009Z,96662
2022-12-17T08:54:48.009Z,96669
2022-12-17T08:55:48.062Z,96670
2022-12-17T08:56:48.008Z,96670
2022-12-17T08:57:48.065Z,96671
2022-12-17T09:00:48.065Z,96673
2022-12-17T09:03:48.256Z,96681
2022-12-17T09:04:48.091Z,96681
2022-12-17T09:05:48.072Z,96681
2022-12-17T09:06:48.040Z,96677
2022-12-17T09:07:48.047Z,96683
2022-12-17T09:08:48.109Z,96684
2022-12-17T09:09:48.071Z,96684
2022-12-17T09:11:48.044Z,96682
2022-12-17T09:13:48.201Z,96687
2022-12-17T09:14:48.074Z,96687
2022-12-17T09:15:48.106Z,96687
2022-12-17T09:16:48.118Z,96685
2022-12-17T09:17:48.089Z,96687
2022-12-17T09:18:48.127Z,96682
2022-12-17T09:19:48.115Z,96679
2022-12-17T09:20:50.749Z,96678
2022-12-17T09:21:48.126Z,96677
2022-12-17T09:23:48.170Z,96674
2022-12-17T09:26:48.137Z,96683
2022-12-17T09:27:48.090Z,96680
2022-12-17T09:28:48.099Z,96680
2022-12-17T09:30:48.231Z,96680
2022-12-17T09:31:48.108Z,96682
2022-12-17T09:32:48.159Z,96681
2022-12-17T09:33:48.144Z,96685
2022-12-17T09:34:48.177Z,96682
2022-12-17T09:35:48.151Z,96679
2022-12-17T09:36:51.285Z,96680
2022-12-17T09:37:48.157Z,96683
2022-12-17T09:38:48.178Z,96683
2022-12-17T09:39:48.207Z,96683
2022-12-17T09:40:48.122Z,96682
2022-12-17T09:42:51.694Z,96681
2022-12-17T09:44:48.169Z,96680
2022-12-17T09:45:48.184Z,96680
2022-12-17T09:46:48.152Z,96681
2022-12-17T09:47:48.157Z,96681
2022-12-17T09:48:48.185Z,96684
2022-12-17T09:49:48.188Z,96683
2022-12-17T09:50:48.194Z,96686
2022-12-17T09:51:48.195Z,96682
2022-12-17T09:52:48.211Z,96681
2022-12-17T09:53:48.188Z,96683
2022-12-17T09:54:48.198Z,96682
2022-12-17T09:55:48.216Z,96683
2022-12-17T09:56:48.186Z,96683
2022-12-17T09:57:50.965Z,96680
2022-12-17T09:58:48.188Z,96680
2022-12-17T09:59:48.172Z,96681
2022-12-17T10:00:48.194Z,96681
2022-12-17T10:01:48.291Z,96675
2022-12-17T10:02:48.414Z,96674
2022-12-17T10:03:48.264Z,96673
2022-12-17T10:04:48.221Z,96669
2022-12-17T10:05:48.219Z,96672
2022-12-17T10:06:48.286Z,96672
2022-12-17T10:07:48.262Z,96672
2022-12-17T10:08:48.189Z,96673
2022-12-17T10:09:48.182Z,96673
2022-12-17T10:10:48.266Z,96672
2022-12-17T10:11:48.228Z,96670
2022-12-17T10:12:48.241Z,96670
2022-12-17T10:13:48.231Z,96670
2022-12-17T10:14:48.193Z,96668
2022-12-17T10:15:48.334Z,96672
2022-12-17T10:16:48.198Z,96673
2022-12-17T10:17:48.202Z,96673
2022-12-17T10:18:48.230Z,96670
2022-12-17T10:21:48.229Z,96674
2022-12-17T10:22:48.280Z,96679
2022-12-17T10:24:48.296Z,96676
2022-12-17T10:25:48.253Z,96673
2022-12-17T10:26:48.264Z,96673
2022-12-17T10:27:48.285Z,96674
2022-12-17T10:28:48.263Z,96672
2022-12-17T10:29:48.639Z,96671
2022-12-17T10:30:48.336Z,96670
2022-12-17T10:31:48.281Z,96673
2022-12-17T10:32:48.594Z,96674
2022-12-17T10:33:48.317Z,96676
2022-12-17T10:34:51.290Z,96678
2022-12-17T10:35:48.337Z,96680
2022-12-17T10:36:48.293Z,96675
2022-12-17T10:37:48.291Z,96678
2022-12-17T10:38:48.332Z,96680
2022-12-17T10:39:48.274Z,96678
2022-12-17T10:40:48.271Z,96682
2022-12-17T10:42:48.314Z,96682
2022-12-17T10:43:48.332Z,96686
2022-12-17T10:44:48.337Z,96681
2022-12-17T10:45:48.305Z,96681
2022-12-17T10:46:48.425Z,96682
2022-12-17T10:47:48.289Z,96679
2022-12-17T10:49:48.316Z,96678
2022-12-17T10:50:48.278Z,96671
2022-12-17T10:51:48.303Z,96671
2022-12-17T10:53:48.321Z,96676
2022-12-17T10:55:48.360Z,96676
2022-12-17T10:57:48.287Z,96677
2022-12-17T10:58:48.334Z,96677
2022-12-17T10:59:48.306Z,96676
2022-12-17T11:00:50.466Z,96680
2022-12-17T11:01:48.452Z,96680
2022-12-17T11:02:48.526Z,96681
2022-12-17T11:03:48.469Z,96681
2022-12-17T11:04:48.364Z,96689
2022-12-17T11:05:48.366Z,96687
2022-12-17T11:06:48.439Z,96689
2022-12-17T11:07:48.355Z,96690
2022-12-17T11:09:48.380Z,96688
2022-12-17T11:10:48.397Z,96687
2022-12-17T11:11:51.575Z,96688
2022-12-17T11:12:48.356Z,96689
2022-12-17T11:13:48.418Z,96688
2022-12-17T11:14:48.353Z,96688
2022-12-17T11:15:48.453Z,96690
2022-12-17T11:16:48.441Z,96689
2022-12-17T11:17:48.424Z,96690
2022-12-17T11:18:48.351Z,96690
2022-12-17T11:19:48.384Z,96691
2022-12-17T11:20:48.369Z,96688
2022-12-17T11:21:48.416Z,96692
2022-12-17T11:22:48.423Z,96691
2022-12-17T11:23:48.516Z,96693
2022-12-17T11:25:48.361Z,96690
2022-12-17T11:26:59.297Z,96688
2022-12-17T11:27:48.385Z,96687
2022-12-17T11:29:48.405Z,96688
2022-12-17T11:30:48.506Z,96688
2022-12-17T11:31:48.435Z,96691
2022-12-17T11:32:48.396Z,96696
2022-12-17T11:33:48.481Z,96690
2022-12-17T11:34:48.395Z,96691
2022-12-17T11:35:48.441Z,96691
2022-12-17T11:37:48.379Z,96695
2022-12-17T11:38:48.475Z,96693
2022-12-17T11:39:48.413Z,96693
2022-12-17T11:40:48.431Z,96695
2022-12-17T11:41:48.526Z,96693
2022-12-17T11:42:48.463Z,96692
2022-12-17T11:43:48.451Z,96692
2022-12-17T11:44:48.426Z,96689
2022-12-17T11:45:48.467Z,96693
2022-12-17T11:46:48.547Z,96692
2022-12-17T11:47:48.448Z,96698
2022-12-17T11:48:51.812Z,96694
2022-12-17T11:51:48.426Z,96692
2022-12-17T11:53:48.527Z,96688
2022-12-17T11:54:48.461Z,96688
2022-12-17T11:55:48.452Z,96685
2022-12-17T11:59:53.275Z,96676
2022-12-17T12:00:48.482Z,96676
2022-12-17T12:01:48.468Z,96679
2022-12-17T12:02:48.579Z,96679
2022-12-17T12:03:48.712Z,96684
2022-12-17T12:04:48.547Z,96686
2022-12-17T12:05:53.478Z,96686
2022-12-17T12:07:48.504Z,96690
2022-12-17T12:08:48.509Z,96686
2022-12-17T12:10:48.515Z,96689
2022-12-17T12:11:48.564Z,96690
2022-12-17T12:14:48.552Z,96691
2022-12-17T12:15:48.549Z,96691
2022-12-17T12:16:48.539Z,96687
2022-12-17T12:18:48.530Z,96688
2022-12-17T12:19:48.531Z,96688
2022-12-17T12:20:48.494Z,96688
2022-12-17T12:21:48.538Z,96686
2022-12-17T12:22:48.489Z,96686
2022-12-17T12:23:48.500Z,96686
2022-12-17T12:24:48.537Z,96687
2022-12-17T12:25:52.070Z,96688
2022-12-17T12:26:48.516Z,96688
2022-12-17T12:27:48.641Z,96691
2022-12-17T12:28:48.529Z,96690
2022-12-17T12:29:48.554Z,96688
2022-12-17T12:30:55.840Z,96687
2022-12-17T12:31:48.691Z,96684
2022-12-17T12:33:48.526Z,96686
2022-12-17T12:34:48.526Z,96683
2022-12-17T12:35:48.578Z,96686
2022-12-17T12:36:48.535Z,96683
2022-12-17T12:37:48.529Z,96684
2022-12-17T12:38:49.054Z,96685
2022-12-17T12:39:48.536Z,96685
2022-12-17T12:42:48.586Z,96685
2022-12-17T12:43:48.626Z,96685
2022-12-17T12:44:49.938Z,96687
2022-12-17T12:45:48.617Z,96685
2022-12-17T12:46:48.549Z,96691
2022-12-17T12:47:48.587Z,96685
2022-12-17T12:48:48.620Z,96683
2022-12-17T12:49:48.565Z,96686
2022-12-17T12:50:48.613Z,96686
2022-12-17T12:51:48.598Z,96684
2022-12-17T12:52:48.578Z,96683
2022-12-17T12:53:48.616Z,96681
2022-12-17T12:54:48.583Z,96679
2022-12-17T12:56:48.666Z,96674
2022-12-17T12:57:48.587Z,96678
2022-12-17T12:58:48.612Z,96673
2022-12-17T12:59:48.608Z,96678
2022-12-17T13:01:48.818Z,96677
2022-12-17T13:02:52.515Z,96678
2022-12-17T13:03:48.808Z,96678
2022-12-17T13:05:48.651Z,96686
2022-12-17T13:06:48.637Z,96689
2022-12-17T13:07:48.628Z,96689
2022-12-17T13:08:48.683Z,96689
2022-12-17T13:09:48.670Z,96690
2022-12-17T13:10:48.655Z,96689
2022-12-17T13:11:48.682Z,96686
2022-12-17T13:12:48.620Z,96686
2022-12-17T13:13:48.744Z,96686
2022-12-17T13:14:48.633Z,96686
2022-12-17T13:15:48.676Z,96684
2022-12-17T13:16:48.694Z,96686
2022-12-17T13:19:48.667Z,96682
2022-12-17T13:20:48.680Z,96685
2022-12-17T13:21:48.711Z,96682
2022-12-17T13:22:48.699Z,96684
2022-12-17T13:23:48.676Z,96687
2022-12-17T13:25:48.707Z,96692
2022-12-17T13:26:48.735Z,96690
2022-12-17T13:28:48.658Z,96686
2022-12-17T13:29:48.788Z,96682
2022-12-17T13:30:48.711Z,96681
2022-12-17T13:32:48.757Z,96682
2022-12-17T13:33:48.682Z,96683
2022-12-17T13:34:48.753Z,96684
2022-12-17T13:40:48.744Z,96681
2022-12-17T13:42:48.708Z,96680
2022-12-17T13:43:48.733Z,96685
2022-12-17T13:44:48.767Z,96682
2022-12-17T13:45:48.795Z,96682
2022-12-17T13:46:48.772Z,96690
2022-12-17T13:48:48.760Z,96701
2022-12-17T13:50:10.191Z,96702
2022-12-17T13:50:48.707Z,96701
2022-12-17T13:51:48.764Z,96702
2022-12-17T13:52:48.751Z,96702
2022-12-17T13:53:48.720Z,96702
2022-12-17T13:54:48.792Z,96702
2022-12-17T13:55:48.729Z,96707
2022-12-17T13:56:48.767Z,96706
2022-12-17T13:57:48.778Z,96711
2022-12-17T13:58:51.159Z,96713
2022-12-17T13:59:48.793Z,96714
2022-12-17T14:00:48.798Z,96710
2022-12-17T14:01:48.878Z,96712
2022-12-17T14:02:49.113Z,96712
2022-12-17T14:04:48.823Z,96707
2022-12-17T14:05:48.740Z,96712
2022-12-17T14:06:48.777Z,96708
2022-12-17T14:07:48.750Z,96717
2022-12-17T14:08:48.775Z,96711
2022-12-17T14:09:48.780Z,96716
2022-12-17T14:10:48.800Z,96716
2022-12-17T14:11:48.829Z,96719
2022-12-17T14:12:48.801Z,96719
2022-12-17T14:13:48.797Z,96715
2022-12-17T14:14:48.819Z,96717
2022-12-17T14:15:48.923Z,96717
2022-12-17T14:16:52.933Z,96714
2022-12-17T14:18:48.792Z,96720
2022-12-17T14:19:48.816Z,96719
2022-12-17T14:20:48.795Z,96720
2022-12-17T14:21:48.968Z,96717
2022-12-17T14:22:51.723Z,96718
2022-12-17T14:23:48.784Z,96719
2022-12-17T14:24:48.865Z,96721
2022-12-17T14:25:48.846Z,96725
2022-12-17T14:27:48.864Z,96722
2022-12-17T14:28:50.424Z,96721
2022-12-17T14:29:48.844Z,96720
2022-12-17T14:31:24.338Z,96720
2022-12-17T14:31:48.930Z,96721
2022-12-17T14:32:48.863Z,96723
2022-12-17T14:33:48.842Z,96723
2022-12-17T14:35:48.859Z,96722
2022-12-17T14:36:48.890Z,96723
2022-12-17T14:37:48.826Z,96723
2022-12-17T14:39:48.894Z,96731
2022-12-17T14:40:48.829Z,96733
2022-12-17T14:41:48.855Z,96735
2022-12-17T14:42:48.824Z,96737
2022-12-17T14:43:48.875Z,96739
2022-12-17T14:44:48.861Z,96737
2022-12-17T14:45:48.887Z,96737
2022-12-17T14:46:48.836Z,96747
2022-12-17T14:47:48.854Z,96747
2022-12-17T14:48:48.892Z,96743
2022-12-17T14:49:55.107Z,96746
2022-12-17T14:50:48.856Z,96746
2022-12-17T14:51:48.940Z,96745
2022-12-17T14:52:48.856Z,96745
2022-12-17T14:53:53.088Z,96746
2022-12-17T14:54:48.899Z,96743
2022-12-17T14:55:54.868Z,96743
2022-12-17T14:56:48.920Z,96742
2022-12-17T14:57:48.907Z,96744
2022-12-17T15:00:48.897Z,96752
2022-12-17T15:01:54.149Z,96753
2022-12-17T15:02:49.072Z,96753
2022-12-17T15:03:48.949Z,96754
2022-12-17T15:05:48.890Z,96749
2022-12-17T15:06:48.886Z,96749
2022-12-17T15:07:48.952Z,96755
2022-12-17T15:08:48.907Z,96755